sensor_id;sensor_type;location;lat;lon;timestamp;P1;P2;P0
49644;PMS5003;36494;50.730;-1.932;2023-08-07T00:00:53;3;3;
49644;PMS5003;36494;50.730;-1.932;2023-08-07T00:03:18;4;4;
49644;PMS5003;36494;50.730;-1.932;2023-08-07T00:05:44;1;1;
49644;PMS5003;36494;50.730;-1.932;2023-08-07T00:08:09;4;4;
49644;PMS5003;36494;50.730;-1.932;2023-08-07T00:10:34;3;3;
49644;PMS5003;36494;50.730;-1.932;2023-08-07T00:13:00;4;4;
49644;PMS5003;36494;50.730;-1.932;2023-08-07T00:15:25;2;2;
49644;PMS5003;36494;50.730;-1.932;2023-08-07T00:17:50;7;6;
49644;PMS5003;36494;50.730;-1.932;2023-08-07T00:20:16;3;3;
49644;PMS5003;36494;50.730;-1.932;2023-08-07T00:22:41;5;5;
49644;PMS5003;36494;50.730;-1.932;2023-08-07T00:25:07;5;5;
49644;PMS5003;36494;50.730;-1.932;2023-08-07T00:27:31;4;4;
49644;PMS5003;36494;50.730;-1.932;2023-08-07T00:29:57;5;5;
49644;PMS5003;36494;50.730;-1.932;2023-08-07T00:32:22;3;3;
49644;PMS5003;36494;50.730;-1.932;2023-08-07T00:34:47;3;3;
49644;PMS5003;36494;50.730;-1.932;2023-08-07T00:37:13;4;4;
49644;PMS5003;36494;50.730;-1.932;2023-08-07T00:39:38;2;2;
49644;PMS5003;36494;50.730;-1.932;2023-08-07T00:42:03;5;5;
49644;PMS5003;36494;50.730;-1.932;2023-08-07T00:44:29;6;4;
49644;PMS5003;36494;50.730;-1.932;2023-08-07T00:46:54;6;6;
49644;PMS5003;36494;50.730;-1.932;2023-08-07T00:49:20;5;4;
49644;PMS5003;36494;50.730;-1.932;2023-08-07T00:51:45;3;3;
49644;PMS5003;36494;50.730;-1.932;2023-08-07T00:54:11;4;4;
49644;PMS5003;36494;50.730;-1.932;2023-08-07T00:56:36;4;4;
49644;PMS5003;36494;50.730;-1.932;2023-08-07T00:59:02;3;2;
49644;PMS5003;36494;50.730;-1.932;2023-08-07T01:01:27;5;5;
49644;PMS5003;36494;50.730;-1.932;2023-08-07T01:03:52;4;3;
49644;PMS5003;36494;50.730;-1.932;2023-08-07T01:06:17;4;3;
49644;PMS5003;36494;50.730;-1.932;2023-08-07T01:08:43;3;3;
49644;PMS5003;36494;50.730;-1.932;2023-08-07T01:11:11;2;2;
49644;PMS5003;36494;50.730;-1.932;2023-08-07T01:13:35;3;3;
49644;PMS5003;36494;50.730;-1.932;2023-08-07T01:16:01;6;6;
49644;PMS5003;36494;50.730;-1.932;2023-08-07T01:18:25;4;3;
49644;PMS5003;36494;50.730;-1.932;2023-08-07T01:20:50;4;4;
49644;PMS5003;36494;50.730;-1.932;2023-08-07T01:23:15;6;6;
49644;PMS5003;36494;50.730;-1.932;2023-08-07T01:25:41;5;4;
49644;PMS5003;36494;50.730;-1.932;2023-08-07T01:28:09;5;5;
49644;PMS5003;36494;50.730;-1.932;2023-08-07T01:30:33;4;4;
49644;PMS5003;36494;50.730;-1.932;2023-08-07T01:32:59;3;3;
49644;PMS5003;36494;50.730;-1.932;2023-08-07T01:35:23;3;3;
49644;PMS5003;36494;50.730;-1.932;2023-08-07T01:37:48;4;4;
49644;PMS5003;36494;50.730;-1.932;2023-08-07T01:40:13;5;5;
49644;PMS5003;36494;50.730;-1.932;2023-08-07T01:42:38;2;2;
49644;PMS5003;36494;50.730;-1.932;2023-08-07T01:45:04;3;3;
49644;PMS5003;36494;50.730;-1.932;2023-08-07T01:47:29;5;5;
49644;PMS5003;36494;50.730;-1.932;2023-08-07T01:49:54;4;4;
49644;PMS5003;36494;50.730;-1.932;2023-08-07T01:52:20;5;5;
49644;PMS5003;36494;50.730;-1.932;2023-08-07T01:54:45;4;3;
49644;PMS5003;36494;50.730;-1.932;2023-08-07T01:57:11;4;4;
49644;PMS5003;36494;50.730;-1.932;2023-08-07T01:59:36;5;5;
49644;PMS5003;36494;50.730;-1.932;2023-08-07T02:02:01;4;3;
49644;PMS5003;36494;50.730;-1.932;2023-08-07T02:04:26;3;3;
49644;PMS5003;36494;50.730;-1.932;2023-08-07T02:06:52;5;4;
49644;PMS5003;36494;50.730;-1.932;2023-08-07T02:09:17;8;5;
49644;PMS5003;36494;50.730;-1.932;2023-08-07T02:11:42;5;4;
49644;PMS5003;36494;50.730;-1.932;2023-08-07T02:14:08;3;3;
49644;PMS5003;36494;50.730;-1.932;2023-08-07T02:16:34;5;5;
49644;PMS5003;36494;50.730;-1.932;2023-08-07T02:18:59;3;3;
49644;PMS5003;36494;50.730;-1.932;2023-08-07T02:21:24;4;3;
49644;PMS5003;36494;50.730;-1.932;2023-08-07T02:23:50;2;2;
49644;PMS5003;36494;50.730;-1.932;2023-08-07T02:26:15;4;4;
49644;PMS5003;36494;50.730;-1.932;2023-08-07T02:28:40;4;4;
49644;PMS5003;36494;50.730;-1.932;2023-08-07T02:31:05;4;4;
49644;PMS5003;36494;50.730;-1.932;2023-08-07T02:33:31;3;3;
49644;PMS5003;36494;50.730;-1.932;2023-08-07T02:35:56;4;4;
49644;PMS5003;36494;50.730;-1.932;2023-08-07T02:38:22;2;2;
49644;PMS5003;36494;50.730;-1.932;2023-08-07T02:40:47;3;3;
49644;PMS5003;36494;50.730;-1.932;2023-08-07T02:43:13;6;6;
49644;PMS5003;36494;50.730;-1.932;2023-08-07T02:45:38;5;5;
49644;PMS5003;36494;50.730;-1.932;2023-08-07T02:48:04;4;4;
49644;PMS5003;36494;50.730;-1.932;2023-08-07T02:50:29;3;2;
49644;PMS5003;36494;50.730;-1.932;2023-08-07T02:52:54;4;4;
49644;PMS5003;36494;50.730;-1.932;2023-08-07T02:55:19;4;3;
49644;PMS5003;36494;50.730;-1.932;2023-08-07T02:57:45;5;5;
49644;PMS5003;36494;50.730;-1.932;2023-08-07T03:00:11;6;6;
49644;PMS5003;36494;50.730;-1.932;2023-08-07T03:02:36;3;3;
49644;PMS5003;36494;50.730;-1.932;2023-08-07T03:05:01;6;6;
49644;PMS5003;36494;50.730;-1.932;2023-08-07T03:07:26;2;2;
49644;PMS5003;36494;50.730;-1.932;2023-08-07T03:09:52;4;3;
49644;PMS5003;36494;50.730;-1.932;2023-08-07T03:12:17;5;5;
49644;PMS5003;36494;50.730;-1.932;2023-08-07T03:14:42;3;3;
49644;PMS5003;36494;50.730;-1.932;2023-08-07T03:17:08;3;3;
49644;PMS5003;36494;50.730;-1.932;2023-08-07T03:19:33;5;4;
49644;PMS5003;36494;50.730;-1.932;2023-08-07T03:21:58;3;3;
49644;PMS5003;36494;50.730;-1.932;2023-08-07T03:24:23;5;5;
49644;PMS5003;36494;50.730;-1.932;2023-08-07T03:26:49;5;4;
49644;PMS5003;36494;50.730;-1.932;2023-08-07T03:29:14;4;4;
49644;PMS5003;36494;50.730;-1.932;2023-08-07T03:31:40;10;9;
49644;PMS5003;36494;50.730;-1.932;2023-08-07T03:34:05;3;3;
49644;PMS5003;36494;50.730;-1.932;2023-08-07T03:36:31;6;5;
49644;PMS5003;36494;50.730;-1.932;2023-08-07T03:38:56;5;5;
49644;PMS5003;36494;50.730;-1.932;2023-08-07T03:41:21;5;5;
49644;PMS5003;36494;50.730;-1.932;2023-08-07T03:43:47;4;4;
49644;PMS5003;36494;50.730;-1.932;2023-08-07T03:46:12;5;5;
49644;PMS5003;36494;50.730;-1.932;2023-08-07T03:48:37;5;4;
49644;PMS5003;36494;50.730;-1.932;2023-08-07T03:51:03;5;4;
49644;PMS5003;36494;50.730;-1.932;2023-08-07T03:53:28;4;4;
49644;PMS5003;36494;50.730;-1.932;2023-08-07T03:55:53;7;7;
49644;PMS5003;36494;50.730;-1.932;2023-08-07T03:58:18;4;4;
49644;PMS5003;36494;50.730;-1.932;2023-08-07T04:00:44;3;3;
49644;PMS5003;36494;50.730;-1.932;2023-08-07T04:03:10;6;4;
49644;PMS5003;36494;50.730;-1.932;2023-08-07T04:05:35;6;5;
49644;PMS5003;36494;50.730;-1.932;2023-08-07T04:08:00;4;4;
49644;PMS5003;36494;50.730;-1.932;2023-08-07T04:10:26;4;4;
49644;PMS5003;36494;50.730;-1.932;2023-08-07T04:12:51;5;4;
49644;PMS5003;36494;50.730;-1.932;2023-08-07T04:15:16;4;4;
49644;PMS5003;36494;50.730;-1.932;2023-08-07T04:17:42;5;5;
49644;PMS5003;36494;50.730;-1.932;2023-08-07T04:20:07;5;5;
49644;PMS5003;36494;50.730;-1.932;2023-08-07T04:22:32;6;6;
49644;PMS5003;36494;50.730;-1.932;2023-08-07T04:24:57;7;6;
49644;PMS5003;36494;50.730;-1.932;2023-08-07T04:27:23;5;5;
49644;PMS5003;36494;50.730;-1.932;2023-08-07T04:29:48;5;5;
49644;PMS5003;36494;50.730;-1.932;2023-08-07T04:32:13;4;4;
49644;PMS5003;36494;50.730;-1.932;2023-08-07T04:34:39;6;5;
49644;PMS5003;36494;50.730;-1.932;2023-08-07T04:37:04;5;5;
49644;PMS5003;36494;50.730;-1.932;2023-08-07T04:39:29;7;6;
49644;PMS5003;36494;50.730;-1.932;2023-08-07T04:41:55;3;3;
49644;PMS5003;36494;50.730;-1.932;2023-08-07T04:44:20;6;5;
49644;PMS5003;36494;50.730;-1.932;2023-08-07T04:46:45;8;6;
49644;PMS5003;36494;50.730;-1.932;2023-08-07T04:49:11;3;3;
49644;PMS5003;36494;50.730;-1.932;2023-08-07T04:51:36;6;5;
49644;PMS5003;36494;50.730;-1.932;2023-08-07T04:54:01;6;6;
49644;PMS5003;36494;50.730;-1.932;2023-08-07T04:56:27;5;5;
49644;PMS5003;36494;50.730;-1.932;2023-08-07T04:58:52;4;4;
49644;PMS5003;36494;50.730;-1.932;2023-08-07T05:01:17;4;4;
49644;PMS5003;36494;50.730;-1.932;2023-08-07T05:03:43;4;4;
49644;PMS5003;36494;50.730;-1.932;2023-08-07T05:06:08;5;5;
49644;PMS5003;36494;50.730;-1.932;2023-08-07T05:08:34;6;6;
49644;PMS5003;36494;50.730;-1.932;2023-08-07T05:10:59;6;6;
49644;PMS5003;36494;50.730;-1.932;2023-08-07T05:13:24;6;5;
49644;PMS5003;36494;50.730;-1.932;2023-08-07T05:15:50;5;5;
49644;PMS5003;36494;50.730;-1.932;2023-08-07T05:18:15;5;5;
49644;PMS5003;36494;50.730;-1.932;2023-08-07T05:20:40;5;5;
49644;PMS5003;36494;50.730;-1.932;2023-08-07T05:23:06;4;4;
49644;PMS5003;36494;50.730;-1.932;2023-08-07T05:25:31;5;5;
49644;PMS5003;36494;50.730;-1.932;2023-08-07T05:27:56;4;4;
49644;PMS5003;36494;50.730;-1.932;2023-08-07T05:30:22;4;4;
49644;PMS5003;36494;50.730;-1.932;2023-08-07T05:32:47;5;4;
49644;PMS5003;36494;50.730;-1.932;2023-08-07T05:35:12;5;5;
49644;PMS5003;36494;50.730;-1.932;2023-08-07T05:37:38;5;5;
49644;PMS5003;36494;50.730;-1.932;2023-08-07T05:40:04;4;4;
49644;PMS5003;36494;50.730;-1.932;2023-08-07T05:42:28;5;5;
49644;PMS5003;36494;50.730;-1.932;2023-08-07T05:44:54;5;5;
49644;PMS5003;36494;50.730;-1.932;2023-08-07T05:47:19;6;6;
49644;PMS5003;36494;50.730;-1.932;2023-08-07T05:49:45;6;6;
49644;PMS5003;36494;50.730;-1.932;2023-08-07T05:52:11;6;6;
49644;PMS5003;36494;50.730;-1.932;2023-08-07T05:54:36;5;5;
49644;PMS5003;36494;50.730;-1.932;2023-08-07T05:57:01;6;6;
49644;PMS5003;36494;50.730;-1.932;2023-08-07T05:59:27;6;6;
49644;PMS5003;36494;50.730;-1.932;2023-08-07T06:01:53;5;5;
49644;PMS5003;36494;50.730;-1.932;2023-08-07T06:04:17;5;4;
49644;PMS5003;36494;50.730;-1.932;2023-08-07T06:06:43;7;6;
49644;PMS5003;36494;50.730;-1.932;2023-08-07T06:09:08;7;7;
49644;PMS5003;36494;50.730;-1.932;2023-08-07T06:11:33;5;5;
49644;PMS5003;36494;50.730;-1.932;2023-08-07T06:13:59;6;6;
49644;PMS5003;36494;50.730;-1.932;2023-08-07T06:16:24;7;7;
49644;PMS5003;36494;50.730;-1.932;2023-08-07T06:18:49;8;7;
49644;PMS5003;36494;50.730;-1.932;2023-08-07T06:21:14;5;5;
49644;PMS5003;36494;50.730;-1.932;2023-08-07T06:23:40;6;5;
49644;PMS5003;36494;50.730;-1.932;2023-08-07T06:26:05;5;5;
49644;PMS5003;36494;50.730;-1.932;2023-08-07T06:28:31;9;9;
49644;PMS5003;36494;50.730;-1.932;2023-08-07T06:31:00;7;6;
49644;PMS5003;36494;50.730;-1.932;2023-08-07T06:33:22;7;6;
49644;PMS5003;36494;50.730;-1.932;2023-08-07T06:35:47;6;6;
49644;PMS5003;36494;50.730;-1.932;2023-08-07T06:38:13;8;7;
49644;PMS5003;36494;50.730;-1.932;2023-08-07T06:40:38;5;5;
49644;PMS5003;36494;50.730;-1.932;2023-08-07T06:43:04;8;8;
49644;PMS5003;36494;50.730;-1.932;2023-08-07T06:45:30;9;8;
49644;PMS5003;36494;50.730;-1.932;2023-08-07T06:47:55;9;8;
49644;PMS5003;36494;50.730;-1.932;2023-08-07T06:50:21;6;6;
49644;PMS5003;36494;50.730;-1.932;2023-08-07T06:52:46;10;9;
49644;PMS5003;36494;50.730;-1.932;2023-08-07T06:55:11;8;8;
49644;PMS5003;36494;50.730;-1.932;2023-08-07T06:57:37;10;10;
49644;PMS5003;36494;50.730;-1.932;2023-08-07T07:00:03;10;9;
49644;PMS5003;36494;50.730;-1.932;2023-08-07T07:02:28;11;10;
49644;PMS5003;36494;50.730;-1.932;2023-08-07T07:04:53;8;8;
49644;PMS5003;36494;50.730;-1.932;2023-08-07T07:07:18;8;7;
49644;PMS5003;36494;50.730;-1.932;2023-08-07T07:09:44;9;8;
49644;PMS5003;36494;50.730;-1.932;2023-08-07T07:12:09;10;9;
49644;PMS5003;36494;50.730;-1.932;2023-08-07T07:14:34;10;10;
49644;PMS5003;36494;50.730;-1.932;2023-08-07T07:17:00;11;11;
49644;PMS5003;36494;50.730;-1.932;2023-08-07T07:19:26;8;8;
49644;PMS5003;36494;50.730;-1.932;2023-08-07T07:21:51;9;8;
49644;PMS5003;36494;50.730;-1.932;2023-08-07T07:24:16;8;8;
49644;PMS5003;36494;50.730;-1.932;2023-08-07T07:26:42;8;8;
49644;PMS5003;36494;50.730;-1.932;2023-08-07T07:29:07;6;6;
49644;PMS5003;36494;50.730;-1.932;2023-08-07T07:31:32;9;8;
49644;PMS5003;36494;50.730;-1.932;2023-08-07T07:33:57;8;7;
49644;PMS5003;36494;50.730;-1.932;2023-08-07T07:36:23;7;7;
49644;PMS5003;36494;50.730;-1.932;2023-08-07T07:38:48;8;8;
49644;PMS5003;36494;50.730;-1.932;2023-08-07T07:41:14;5;5;
49644;PMS5003;36494;50.730;-1.932;2023-08-07T07:43:39;10;9;
49644;PMS5003;36494;50.730;-1.932;2023-08-07T07:46:04;11;11;
49644;PMS5003;36494;50.730;-1.932;2023-08-07T07:48:29;7;7;
49644;PMS5003;36494;50.730;-1.932;2023-08-07T07:50:57;9;8;
49644;PMS5003;36494;50.730;-1.932;2023-08-07T07:53:20;4;4;
49644;PMS5003;36494;50.730;-1.932;2023-08-07T07:55:46;4;4;
49644;PMS5003;36494;50.730;-1.932;2023-08-07T07:58:11;5;5;
49644;PMS5003;36494;50.730;-1.932;2023-08-07T08:00:36;6;6;
49644;PMS5003;36494;50.730;-1.932;2023-08-07T08:03:01;5;5;
49644;PMS5003;36494;50.730;-1.932;2023-08-07T08:05:27;5;5;
49644;PMS5003;36494;50.730;-1.932;2023-08-07T08:07:53;5;4;
49644;PMS5003;36494;50.730;-1.932;2023-08-07T08:10:18;7;6;
49644;PMS5003;36494;50.730;-1.932;2023-08-07T08:12:44;5;5;
49644;PMS5003;36494;50.730;-1.932;2023-08-07T08:15:09;4;3;
49644;PMS5003;36494;50.730;-1.932;2023-08-07T08:17:34;4;4;
49644;PMS5003;36494;50.730;-1.932;2023-08-07T08:19:59;3;3;
49644;PMS5003;36494;50.730;-1.932;2023-08-07T08:22:25;4;3;
49644;PMS5003;36494;50.730;-1.932;2023-08-07T08:24:50;3;2;
49644;PMS5003;36494;50.730;-1.932;2023-08-07T08:27:15;4;4;
49644;PMS5003;36494;50.730;-1.932;2023-08-07T08:29:41;2;2;
49644;PMS5003;36494;50.730;-1.932;2023-08-07T08:32:06;2;2;
49644;PMS5003;36494;50.730;-1.932;2023-08-07T08:34:31;3;3;
49644;PMS5003;36494;50.730;-1.932;2023-08-07T08:36:57;4;4;
49644;PMS5003;36494;50.730;-1.932;2023-08-07T08:39:22;3;3;
49644;PMS5003;36494;50.730;-1.932;2023-08-07T08:41:49;2;2;
49644;PMS5003;36494;50.730;-1.932;2023-08-07T08:44:13;3;3;
49644;PMS5003;36494;50.730;-1.932;2023-08-07T08:46:38;2;2;
49644;PMS5003;36494;50.730;-1.932;2023-08-07T08:49:03;4;4;
49644;PMS5003;36494;50.730;-1.932;2023-08-07T08:51:28;2;2;
49644;PMS5003;36494;50.730;-1.932;2023-08-07T08:53:54;4;4;
49644;PMS5003;36494;50.730;-1.932;2023-08-07T08:56:19;4;3;
49644;PMS5003;36494;50.730;-1.932;2023-08-07T08:58:44;3;3;
49644;PMS5003;36494;50.730;-1.932;2023-08-07T09:01:10;2;2;
49644;PMS5003;36494;50.730;-1.932;2023-08-07T09:03:35;2;2;
49644;PMS5003;36494;50.730;-1.932;2023-08-07T09:06:00;1;1;
49644;PMS5003;36494;50.730;-1.932;2023-08-07T09:08:26;3;3;
49644;PMS5003;36494;50.730;-1.932;2023-08-07T09:10:51;1;1;
49644;PMS5003;36494;50.730;-1.932;2023-08-07T09:13:16;0;0;
49644;PMS5003;36494;50.730;-1.932;2023-08-07T09:15:41;2;2;
49644;PMS5003;36494;50.730;-1.932;2023-08-07T09:18:07;2;2;
49644;PMS5003;36494;50.730;-1.932;2023-08-07T09:20:32;2;2;
49644;PMS5003;36494;50.730;-1.932;2023-08-07T09:22:57;2;2;
49644;PMS5003;36494;50.730;-1.932;2023-08-07T09:25:27;2;2;
49644;PMS5003;36494;50.730;-1.932;2023-08-07T09:27:47;2;2;
49644;PMS5003;36494;50.730;-1.932;2023-08-07T09:30:13;1;1;
49644;PMS5003;36494;50.730;-1.932;2023-08-07T09:32:39;2;2;
49644;PMS5003;36494;50.730;-1.932;2023-08-07T09:35:03;1;1;
49644;PMS5003;36494;50.730;-1.932;2023-08-07T09:37:28;1;1;
49644;PMS5003;36494;50.730;-1.932;2023-08-07T09:39:54;0;0;
49644;PMS5003;36494;50.730;-1.932;2023-08-07T09:42:19;2;1;
49644;PMS5003;36494;50.730;-1.932;2023-08-07T09:44:44;2;2;
49644;PMS5003;36494;50.730;-1.932;2023-08-07T09:47:11;3;2;
49644;PMS5003;36494;50.730;-1.932;2023-08-07T09:49:35;2;2;
49644;PMS5003;36494;50.730;-1.932;2023-08-07T09:52:00;2;2;
49644;PMS5003;36494;50.730;-1.932;2023-08-07T09:54:25;2;2;
49644;PMS5003;36494;50.730;-1.932;2023-08-07T09:56:50;2;2;
49644;PMS5003;36494;50.730;-1.932;2023-08-07T09:59:16;2;1;
49644;PMS5003;36494;50.730;-1.932;2023-08-07T10:01:41;4;3;
49644;PMS5003;36494;50.730;-1.932;2023-08-07T10:04:07;1;1;
49644;PMS5003;36494;50.730;-1.932;2023-08-07T10:06:32;1;1;
49644;PMS5003;36494;50.730;-1.932;2023-08-07T10:08:57;1;1;
49644;PMS5003;36494;50.730;-1.932;2023-08-07T10:11:23;1;1;
49644;PMS5003;36494;50.730;-1.932;2023-08-07T10:13:48;2;2;
49644;PMS5003;36494;50.730;-1.932;2023-08-07T10:16:13;0;0;
49644;PMS5003;36494;50.730;-1.932;2023-08-07T10:18:38;2;2;
49644;PMS5003;36494;50.730;-1.932;2023-08-07T10:21:05;2;2;
49644;PMS5003;36494;50.730;-1.932;2023-08-07T10:23:29;2;2;
49644;PMS5003;36494;50.730;-1.932;2023-08-07T10:25:54;1;1;
49644;PMS5003;36494;50.730;-1.932;2023-08-07T10:28:19;2;2;
49644;PMS5003;36494;50.730;-1.932;2023-08-07T10:30:44;4;3;
49644;PMS5003;36494;50.730;-1.932;2023-08-07T10:33:10;1;1;
49644;PMS5003;36494;50.730;-1.932;2023-08-07T10:35:35;2;2;
49644;PMS5003;36494;50.730;-1.932;2023-08-07T10:38:05;3;3;
49644;PMS5003;36494;50.730;-1.932;2023-08-07T10:40:26;4;3;
49644;PMS5003;36494;50.730;-1.932;2023-08-07T10:42:52;2;1;
49644;PMS5003;36494;50.730;-1.932;2023-08-07T10:45:17;2;2;
49644;PMS5003;36494;50.730;-1.932;2023-08-07T10:47:41;2;2;
49644;PMS5003;36494;50.730;-1.932;2023-08-07T10:50:07;1;1;
49644;PMS5003;36494;50.730;-1.932;2023-08-07T10:52:32;2;2;
49644;PMS5003;36494;50.730;-1.932;2023-08-07T10:54:57;1;1;
49644;PMS5003;36494;50.730;-1.932;2023-08-07T10:57:22;2;1;
49644;PMS5003;36494;50.730;-1.932;2023-08-07T10:59:49;2;2;
49644;PMS5003;36494;50.730;-1.932;2023-08-07T11:02:21;3;3;
49644;PMS5003;36494;50.730;-1.932;2023-08-07T11:04:38;3;3;
49644;PMS5003;36494;50.730;-1.932;2023-08-07T11:07:03;4;3;
49644;PMS5003;36494;50.730;-1.932;2023-08-07T11:09:28;3;3;
49644;PMS5003;36494;50.730;-1.932;2023-08-07T11:11:54;3;3;
49644;PMS5003;36494;50.730;-1.932;2023-08-07T11:14:19;2;2;
49644;PMS5003;36494;50.730;-1.932;2023-08-07T11:16:45;3;3;
49644;PMS5003;36494;50.730;-1.932;2023-08-07T11:19:10;3;2;
49644;PMS5003;36494;50.730;-1.932;2023-08-07T11:21:35;2;2;
49644;PMS5003;36494;50.730;-1.932;2023-08-07T11:24:00;2;2;
49644;PMS5003;36494;50.730;-1.932;2023-08-07T11:26:25;2;2;
49644;PMS5003;36494;50.730;-1.932;2023-08-07T11:28:50;2;2;
49644;PMS5003;36494;50.730;-1.932;2023-08-07T11:31:16;3;2;
49644;PMS5003;36494;50.730;-1.932;2023-08-07T11:33:41;2;2;
49644;PMS5003;36494;50.730;-1.932;2023-08-07T11:36:10;2;2;
49644;PMS5003;36494;50.730;-1.932;2023-08-07T11:38:32;2;2;
49644;PMS5003;36494;50.730;-1.932;2023-08-07T11:40:57;2;2;
49644;PMS5003;36494;50.730;-1.932;2023-08-07T11:43:22;3;3;
49644;PMS5003;36494;50.730;-1.932;2023-08-07T11:45:47;2;2;
49644;PMS5003;36494;50.730;-1.932;2023-08-07T11:48:13;1;1;
49644;PMS5003;36494;50.730;-1.932;2023-08-07T11:50:38;1;1;
49644;PMS5003;36494;50.730;-1.932;2023-08-07T11:53:03;3;3;
49644;PMS5003;36494;50.730;-1.932;2023-08-07T11:55:28;3;3;
49644;PMS5003;36494;50.730;-1.932;2023-08-07T11:57:54;2;2;
49644;PMS5003;36494;50.730;-1.932;2023-08-07T12:00:19;3;3;
49644;PMS5003;36494;50.730;-1.932;2023-08-07T12:02:44;5;4;
49644;PMS5003;36494;50.730;-1.932;2023-08-07T12:05:09;1;1;
49644;PMS5003;36494;50.730;-1.932;2023-08-07T12:07:34;4;4;
49644;PMS5003;36494;50.730;-1.932;2023-08-07T12:10:01;2;2;
49644;PMS5003;36494;50.730;-1.932;2023-08-07T12:12:25;3;3;
49644;PMS5003;36494;50.730;-1.932;2023-08-07T12:14:52;2;2;
49644;PMS5003;36494;50.730;-1.932;2023-08-07T12:17:16;3;3;
49644;PMS5003;36494;50.730;-1.932;2023-08-07T12:19:41;3;2;
49644;PMS5003;36494;50.730;-1.932;2023-08-07T12:22:06;3;3;
49644;PMS5003;36494;50.730;-1.932;2023-08-07T12:24:31;3;3;
49644;PMS5003;36494;50.730;-1.932;2023-08-07T12:26:57;4;2;
49644;PMS5003;36494;50.730;-1.932;2023-08-07T12:29:22;2;2;
49644;PMS5003;36494;50.730;-1.932;2023-08-07T12:31:47;2;1;
49644;PMS5003;36494;50.730;-1.932;2023-08-07T12:34:12;3;3;
49644;PMS5003;36494;50.730;-1.932;2023-08-07T12:36:37;3;3;
49644;PMS5003;36494;50.730;-1.932;2023-08-07T12:39:03;4;3;
49644;PMS5003;36494;50.730;-1.932;2023-08-07T12:41:28;5;5;
49644;PMS5003;36494;50.730;-1.932;2023-08-07T12:43:54;3;3;
49644;PMS5003;36494;50.730;-1.932;2023-08-07T12:46:19;3;3;
49644;PMS5003;36494;50.730;-1.932;2023-08-07T12:48:44;2;2;
49644;PMS5003;36494;50.730;-1.932;2023-08-07T12:51:10;5;4;
49644;PMS5003;36494;50.730;-1.932;2023-08-07T12:53:35;5;4;
49644;PMS5003;36494;50.730;-1.932;2023-08-07T12:56:00;2;2;
49644;PMS5003;36494;50.730;-1.932;2023-08-07T12:58:26;5;5;
49644;PMS5003;36494;50.730;-1.932;2023-08-07T13:00:51;3;3;
49644;PMS5003;36494;50.730;-1.932;2023-08-07T13:03:16;3;3;
49644;PMS5003;36494;50.730;-1.932;2023-08-07T13:05:41;3;3;
49644;PMS5003;36494;50.730;-1.932;2023-08-07T13:08:07;3;3;
49644;PMS5003;36494;50.730;-1.932;2023-08-07T13:10:32;3;3;
49644;PMS5003;36494;50.730;-1.932;2023-08-07T13:12:57;3;3;
49644;PMS5003;36494;50.730;-1.932;2023-08-07T13:15:23;4;3;
49644;PMS5003;36494;50.730;-1.932;2023-08-07T13:17:48;3;3;
49644;PMS5003;36494;50.730;-1.932;2023-08-07T13:20:13;2;2;
49644;PMS5003;36494;50.730;-1.932;2023-08-07T13:22:39;2;2;
49644;PMS5003;36494;50.730;-1.932;2023-08-07T13:25:04;4;4;
49644;PMS5003;36494;50.730;-1.932;2023-08-07T13:27:29;4;4;
49644;PMS5003;36494;50.730;-1.932;2023-08-07T13:29:55;3;3;
49644;PMS5003;36494;50.730;-1.932;2023-08-07T13:32:20;3;3;
49644;PMS5003;36494;50.730;-1.932;2023-08-07T13:34:46;2;2;
49644;PMS5003;36494;50.730;-1.932;2023-08-07T13:37:11;7;5;
49644;PMS5003;36494;50.730;-1.932;2023-08-07T13:39:36;7;4;
49644;PMS5003;36494;50.730;-1.932;2023-08-07T13:42:01;2;2;
49644;PMS5003;36494;50.730;-1.932;2023-08-07T13:44:27;3;3;
49644;PMS5003;36494;50.730;-1.932;2023-08-07T13:46:52;3;3;
49644;PMS5003;36494;50.730;-1.932;2023-08-07T13:49:17;4;3;
49644;PMS5003;36494;50.730;-1.932;2023-08-07T13:51:43;2;2;
49644;PMS5003;36494;50.730;-1.932;2023-08-07T13:54:08;5;4;
49644;PMS5003;36494;50.730;-1.932;2023-08-07T13:56:34;6;5;
49644;PMS5003;36494;50.730;-1.932;2023-08-07T13:58:59;4;4;
49644;PMS5003;36494;50.730;-1.932;2023-08-07T14:01:24;5;5;
49644;PMS5003;36494;50.730;-1.932;2023-08-07T14:03:50;6;5;
49644;PMS5003;36494;50.730;-1.932;2023-08-07T14:06:15;5;4;
49644;PMS5003;36494;50.730;-1.932;2023-08-07T14:08:40;4;3;
49644;PMS5003;36494;50.730;-1.932;2023-08-07T14:11:05;4;4;
49644;PMS5003;36494;50.730;-1.932;2023-08-07T14:13:31;4;4;
49644;PMS5003;36494;50.730;-1.932;2023-08-07T14:15:56;5;5;
49644;PMS5003;36494;50.730;-1.932;2023-08-07T14:18:21;2;2;
49644;PMS5003;36494;50.730;-1.932;2023-08-07T14:20:46;5;5;
49644;PMS5003;36494;50.730;-1.932;2023-08-07T14:23:12;3;3;
49644;PMS5003;36494;50.730;-1.932;2023-08-07T14:25:37;4;4;
49644;PMS5003;36494;50.730;-1.932;2023-08-07T14:28:03;4;3;
49644;PMS5003;36494;50.730;-1.932;2023-08-07T14:30:28;3;3;
49644;PMS5003;36494;50.730;-1.932;2023-08-07T14:32:53;4;3;
49644;PMS5003;36494;50.730;-1.932;2023-08-07T14:35:19;5;5;
49644;PMS5003;36494;50.730;-1.932;2023-08-07T14:37:44;5;5;
49644;PMS5003;36494;50.730;-1.932;2023-08-07T14:40:10;2;2;
49644;PMS5003;36494;50.730;-1.932;2023-08-07T14:42:35;4;3;
49644;PMS5003;36494;50.730;-1.932;2023-08-07T14:45:00;1;1;
49644;PMS5003;36494;50.730;-1.932;2023-08-07T14:47:25;4;4;
49644;PMS5003;36494;50.730;-1.932;2023-08-07T14:49:51;4;4;
49644;PMS5003;36494;50.730;-1.932;2023-08-07T14:52:16;4;4;
49644;PMS5003;36494;50.730;-1.932;2023-08-07T14:54:41;4;3;
49644;PMS5003;36494;50.730;-1.932;2023-08-07T14:57:07;4;4;
49644;PMS5003;36494;50.730;-1.932;2023-08-07T14:59:32;3;3;
49644;PMS5003;36494;50.730;-1.932;2023-08-07T15:01:57;4;4;
49644;PMS5003;36494;50.730;-1.932;2023-08-07T15:04:22;5;4;
49644;PMS5003;36494;50.730;-1.932;2023-08-07T15:06:47;3;3;
49644;PMS5003;36494;50.730;-1.932;2023-08-07T15:09:13;3;3;
49644;PMS5003;36494;50.730;-1.932;2023-08-07T15:11:38;3;2;
49644;PMS5003;36494;50.730;-1.932;2023-08-07T15:14:04;3;2;
49644;PMS5003;36494;50.730;-1.932;2023-08-07T15:16:29;3;3;
49644;PMS5003;36494;50.730;-1.932;2023-08-07T15:18:54;3;3;
49644;PMS5003;36494;50.730;-1.932;2023-08-07T15:21:19;3;3;
49644;PMS5003;36494;50.730;-1.932;2023-08-07T15:23:45;5;4;
49644;PMS5003;36494;50.730;-1.932;2023-08-07T15:26:10;3;3;
49644;PMS5003;36494;50.730;-1.932;2023-08-07T15:28:36;3;3;
49644;PMS5003;36494;50.730;-1.932;2023-08-07T15:31:02;4;4;
49644;PMS5003;36494;50.730;-1.932;2023-08-07T15:33:27;3;3;
49644;PMS5003;36494;50.730;-1.932;2023-08-07T15:35:53;3;3;
49644;PMS5003;36494;50.730;-1.932;2023-08-07T15:38:17;3;3;
49644;PMS5003;36494;50.730;-1.932;2023-08-07T15:40:43;4;3;
49644;PMS5003;36494;50.730;-1.932;2023-08-07T15:43:08;4;4;
49644;PMS5003;36494;50.730;-1.932;2023-08-07T15:45:33;2;2;
49644;PMS5003;36494;50.730;-1.932;2023-08-07T15:47:58;4;4;
49644;PMS5003;36494;50.730;-1.932;2023-08-07T15:50:24;4;4;
49644;PMS5003;36494;50.730;-1.932;2023-08-07T15:52:49;2;2;
49644;PMS5003;36494;50.730;-1.932;2023-08-07T15:55:14;2;2;
49644;PMS5003;36494;50.730;-1.932;2023-08-07T15:57:39;1;1;
49644;PMS5003;36494;50.730;-1.932;2023-08-07T16:00:05;4;3;
49644;PMS5003;36494;50.730;-1.932;2023-08-07T16:02:30;2;2;
49644;PMS5003;36494;50.730;-1.932;2023-08-07T16:04:55;3;3;
49644;PMS5003;36494;50.730;-1.932;2023-08-07T16:07:20;5;4;
49644;PMS5003;36494;50.730;-1.932;2023-08-07T16:09:46;4;4;
49644;PMS5003;36494;50.730;-1.932;2023-08-07T16:12:11;3;2;
49644;PMS5003;36494;50.730;-1.932;2023-08-07T16:14:36;4;4;
49644;PMS5003;36494;50.730;-1.932;2023-08-07T16:17:02;4;4;
49644;PMS5003;36494;50.730;-1.932;2023-08-07T16:19:27;4;4;